Thunder radar more information blitzortung!


Radar de pluja more information rain snow radar


Visita la nostra xarxa de llocs de meteo:

Template documentation
and downloads

And another site



No particular awareness of the weather is required.    There are no Weather-warnings

Pagina Historial Weather Underground text

Diari Resum Desembre 8, 2017 Unitats:  Tant    Imperial   Mètric
« Previous Dia
SegĂźent Dia »
Diari Setmana Mensual Anual Personalitzada
  Maxima: Minima: Media:
Temperatura: TemperatureC °F /  -17.8 °C 2.5 °F /  -16.4 °C 5.8 °F /  -14.6 °C
Punt de rosada: DewpointC °F /  -17.8 °C -4.3 °F /  -20.2 °C -1.3 °F /  -18.5 °C
Humitat: Humidity % 55 % 60 %
Wind Speed: WindSpeedKMH mph /  0 km/h - 4.2 mph /  6.8 km/h
RĂ fegues de vent: WindSpeedGustKMH mph /  0 km/h - -
Vent:- - SSE
Pression baro: PressurehPa in /  0 hPa 1018.8 in /  34496.6 hPa -
Precipitacions: 0.0 in /  0 mm    
Historical Graphs
 
 
Dades de taula per Desembre 8, 2017
Temps Temperatura Punt de rosada Pression baro Vent Wind Speed RĂ fegues de vent Humitat Rainfall Rate (Hourly)
TemperatureC °F /  -17.8 °C DewpointC °F /  -17.8 °C PressurehPa in /  0 hPa Calm     Humidity % HourlyPrecipMM in /  0 mm
00:01 5.1 °F /  -14.9 °C -2.9 °F /  -19.4 °C 1026.0 in /  34740.4 hPa SW 3.7 mph /  6 km/h 3.7 mph /  6 km/h 56 % 0.0 in /  0 mm
00:06 5.0 °F /  -15 °C -3.1 °F /  -19.5 °C 1026.0 in /  34740.4 hPa SW 1.9 mph /  3.1 km/h 1.9 mph /  3.1 km/h 56 % 0.0 in /  0 mm
00:15 2.6 °F /  -16.3 °C -4.2 °F /  -20.1 °C 1022.9 in /  34635.4 hPa WSW 3.2 mph /  5.1 km/h 3.2 mph /  5.1 km/h 61 % 0.0 in /  0 mm
00:25 2.6 °F /  -16.3 °C -4.2 °F /  -20.1 °C 1022.9 in /  34635.4 hPa WSW 1.6 mph /  2.6 km/h 3.2 mph /  5.1 km/h 61 % 0.0 in /  0 mm
00:35 2.5 °F /  -16.4 °C -4.3 °F /  -20.2 °C 1022.9 in /  34635.4 hPa NW 1.6 mph /  2.6 km/h 3.2 mph /  5.1 km/h 61 % 0.0 in /  0 mm
00:45 2.5 °F /  -16.4 °C -4.3 °F /  -20.2 °C 1022.9 in /  34635.4 hPa North 3.2 mph /  5.1 km/h 3.2 mph /  5.1 km/h 61 % 0.0 in /  0 mm
01:05 2.6 °F /  -16.3 °C -3.9 °F /  -19.9 °C 1022.9 in /  34635.4 hPa Calm   3.2 mph /  5.1 km/h 62 % 0.0 in /  0 mm
01:25 2.7 °F /  -16.3 °C -3.9 °F /  -19.9 °C 1022.9 in /  34635.4 hPa NNE 1.6 mph /  2.6 km/h 4.8 mph /  7.7 km/h 62 % 0.0 in /  0 mm
01:45 2.7 °F /  -16.3 °C -3.9 °F /  -19.9 °C 1022.9 in /  34635.4 hPa NNE 1.6 mph /  2.6 km/h 4.8 mph /  7.7 km/h 62 % 0.0 in /  0 mm
01:55 2.8 °F /  -16.2 °C -3.8 °F /  -19.9 °C 1022.9 in /  34635.4 hPa NE 3.2 mph /  5.1 km/h 4.8 mph /  7.7 km/h 62 % 0.0 in /  0 mm
08:06 2.8 °F /  -16.2 °C -3.8 °F /  -19.9 °C 1022.9 in /  34635.4 hPa Calm   1.4 mph /  2.3 km/h 62 % 0.0 in /  0 mm
08:21 3.0 °F /  -16.1 °C -3.6 °F /  -19.8 °C 1022.9 in /  34635.4 hPa NNE 5.8 mph /  9.3 km/h 5.8 mph /  9.3 km/h 62 % 0.0 in /  0 mm
08:26 3.0 °F /  -16.1 °C -3.6 °F /  -19.8 °C 1022.9 in /  34635.4 hPa ENE 5.6 mph /  9 km/h 5.6 mph /  9 km/h 62 % 0.0 in /  0 mm
08:31 3.0 °F /  -16.1 °C -3.6 °F /  -19.8 °C 1022.9 in /  34635.4 hPa SW 3.7 mph /  6 km/h 3.7 mph /  6 km/h 62 % 0.0 in /  0 mm
08:36 2.9 °F /  -16.2 °C -3.7 °F /  -19.8 °C 1022.9 in /  34635.4 hPa NW 6.1 mph /  9.8 km/h 6.1 mph /  9.8 km/h 62 % 0.0 in /  0 mm
08:38 2.9 °F /  -16.2 °C -3.7 °F /  -19.8 °C 1022.9 in /  34635.4 hPa West 5.6 mph /  9 km/h 5.6 mph /  9 km/h 62 % 0.0 in /  0 mm
08:43 3.0 °F /  -16.1 °C -3.6 °F /  -19.8 °C 1022.9 in /  34635.4 hPa North 7.4 mph /  11.9 km/h 7.4 mph /  11.9 km/h 62 % 0.0 in /  0 mm
08:48 3.1 °F /  -16.1 °C -3.5 °F /  -19.7 °C 1022.9 in /  34635.4 hPa East 3.7 mph /  6 km/h 3.7 mph /  6 km/h 62 % 0.0 in /  0 mm
08:53 3.1 °F /  -16.1 °C -3.5 °F /  -19.7 °C 1022.9 in /  34635.4 hPa NNW 5.6 mph /  9 km/h 5.6 mph /  9 km/h 62 % 0.0 in /  0 mm
08:58 3.2 °F /  -16 °C -3.4 °F /  -19.7 °C 1022.9 in /  34635.4 hPa NNW 5.6 mph /  9 km/h 5.6 mph /  9 km/h 62 % 0.0 in /  0 mm
09:03 3.3 °F /  -15.9 °C -3.5 °F /  -19.7 °C 1022.9 in /  34635.4 hPa North 4.2 mph /  6.8 km/h 4.2 mph /  6.8 km/h 61 % 0.0 in /  0 mm
09:08 3.4 °F /  -15.9 °C -3.4 °F /  -19.7 °C 1022.9 in /  34635.4 hPa North 3.7 mph /  6 km/h 3.7 mph /  6 km/h 61 % 0.0 in /  0 mm
09:13 3.5 °F /  -15.8 °C -3.3 °F /  -19.6 °C 1022.9 in /  34635.4 hPa NNE 6.9 mph /  11.1 km/h 6.9 mph /  11.1 km/h 61 % 0.0 in /  0 mm
09:18 3.5 °F /  -15.8 °C -3.3 °F /  -19.6 °C 1022.9 in /  34635.4 hPa North 4.2 mph /  6.8 km/h 4.2 mph /  6.8 km/h 61 % 0.0 in /  0 mm
09:33 4.2 °F /  -15.4 °C -2.7 °F /  -19.3 °C 1022.9 in /  34635.4 hPa East 3.9 mph /  6.3 km/h 3.9 mph /  6.3 km/h 61 % 0.0 in /  0 mm
09:43 4.6 °F /  -15.2 °C -2.3 °F /  -19.1 °C 1022.9 in /  34635.4 hPa West 5.6 mph /  9 km/h 5.6 mph /  9 km/h 61 % 0.0 in /  0 mm
09:48 4.6 °F /  -15.2 °C -2.3 °F /  -19.1 °C 1022.9 in /  34635.4 hPa ESE 9.3 mph /  15 km/h 9.3 mph /  15 km/h 61 % 0.0 in /  0 mm
09:53 4.6 °F /  -15.2 °C -2.5 °F /  -19.2 °C 1022.9 in /  34635.4 hPa NNE 4.2 mph /  6.8 km/h 4.2 mph /  6.8 km/h 60 % 0.0 in /  0 mm
10:03 4.7 °F /  -15.2 °C -2.4 °F /  -19.1 °C 1022.9 in /  34635.4 hPa NNW 3.7 mph /  6 km/h 3.7 mph /  6 km/h 60 % 0.0 in /  0 mm
10:08 4.8 °F /  -15.1 °C -2.3 °F /  -19.1 °C 1022.9 in /  34635.4 hPa NNE 3.7 mph /  6 km/h 3.7 mph /  6 km/h 60 % 0.0 in /  0 mm
10:09 4.8 °F /  -15.1 °C -2.3 °F /  -19.1 °C 1022.9 in /  34635.4 hPa NNE 3.9 mph /  6.3 km/h 3.9 mph /  6.3 km/h 60 % 0.0 in /  0 mm
10:14 5.0 °F /  -15 °C -2.1 °F /  -18.9 °C 1022.9 in /  34635.4 hPa NE 3.7 mph /  6 km/h   60 % 0.0 in /  0 mm
10:19 5.1 °F /  -14.9 °C -2.1 °F /  -18.9 °C 1022.9 in /  34635.4 hPa NNW 3.7 mph /  6 km/h 3.7 mph /  6 km/h 60 % 0.0 in /  0 mm
10:29 5.2 °F /  -14.9 °C -1.9 °F /  -18.8 °C 1022.9 in /  34635.4 hPa ESE 5.8 mph /  9.3 km/h 5.8 mph /  9.3 km/h 60 % 0.0 in /  0 mm
10:39 5.4 °F /  -14.8 °C -2.0 °F /  -18.9 °C 1022.9 in /  34635.4 hPa NNE 3.9 mph /  6.3 km/h 3.9 mph /  6.3 km/h 59 % 0.0 in /  0 mm
10:44 5.4 °F /  -14.8 °C -2.0 °F /  -18.9 °C 1022.9 in /  34635.4 hPa NE 5.6 mph /  9 km/h 5.6 mph /  9 km/h 59 % 0.0 in /  0 mm
10:49 5.5 °F /  -14.7 °C -1.9 °F /  -18.8 °C 1022.9 in /  34635.4 hPa NNW 5.6 mph /  9 km/h 5.6 mph /  9 km/h 59 % 0.0 in /  0 mm
10:54 5.5 °F /  -14.7 °C -1.9 °F /  -18.8 °C 1022.9 in /  34635.4 hPa WNW 7.4 mph /  11.9 km/h 7.4 mph /  11.9 km/h 59 % 0.0 in /  0 mm
10:59 5.6 °F /  -14.7 °C -1.8 °F /  -18.8 °C 1021.9 in /  34601.5 hPa NNW 3.7 mph /  6 km/h 3.7 mph /  6 km/h 59 % 0.0 in /  0 mm
11:04 5.6 °F /  -14.7 °C -1.8 °F /  -18.8 °C 1021.9 in /  34601.5 hPa NNW 7.4 mph /  11.9 km/h 7.4 mph /  11.9 km/h 59 % 0.0 in /  0 mm
11:09 5.7 °F /  -14.6 °C -1.7 °F /  -18.7 °C 1021.9 in /  34601.5 hPa NNE 7.6 mph /  12.2 km/h 7.6 mph /  12.2 km/h 59 % 0.0 in /  0 mm
11:14 5.7 °F /  -14.6 °C -1.7 °F /  -18.7 °C 1021.9 in /  34601.5 hPa NNW 9.3 mph /  15 km/h 9.3 mph /  15 km/h 59 % 0.0 in /  0 mm
11:19 5.8 °F /  -14.6 °C -1.8 °F /  -18.8 °C 1021.9 in /  34601.5 hPa ENE 6.9 mph /  11.1 km/h 6.9 mph /  11.1 km/h 58 % 0.0 in /  0 mm
11:24 5.8 °F /  -14.6 °C -1.8 °F /  -18.8 °C 1021.9 in /  34601.5 hPa NNW 5.6 mph /  9 km/h 5.6 mph /  9 km/h 58 % 0.0 in /  0 mm
11:29 5.8 °F /  -14.6 °C -1.8 °F /  -18.8 °C 1021.9 in /  34601.5 hPa NNW 7.4 mph /  11.9 km/h 7.4 mph /  11.9 km/h 58 % 0.0 in /  0 mm
11:34 5.9 °F /  -14.5 °C -1.7 °F /  -18.7 °C 1021.9 in /  34601.5 hPa South 9.3 mph /  15 km/h 9.3 mph /  15 km/h 58 % 0.0 in /  0 mm
11:39 6.0 °F /  -14.4 °C -1.7 °F /  -18.7 °C 1021.9 in /  34601.5 hPa ENE 4.7 mph /  7.6 km/h 4.7 mph /  7.6 km/h 58 % 0.0 in /  0 mm
11:44 6.0 °F /  -14.4 °C -1.7 °F /  -18.7 °C 1021.9 in /  34601.5 hPa SW 5.6 mph /  9 km/h 5.8 mph /  9.3 km/h 58 % 0.0 in /  0 mm
11:49 6.1 °F /  -14.4 °C -1.6 °F /  -18.7 °C 1021.9 in /  34601.5 hPa NNE 9.3 mph /  15 km/h 9.3 mph /  15 km/h 58 % 0.0 in /  0 mm
11:54 6.1 °F /  -14.4 °C -1.6 °F /  -18.7 °C 1021.9 in /  34601.5 hPa NNW 5.6 mph /  9 km/h 5.6 mph /  9 km/h 58 % 0.0 in /  0 mm
11:59 6.1 °F /  -14.4 °C -1.8 °F /  -18.8 °C 1021.9 in /  34601.5 hPa ESE 5.6 mph /  9 km/h 5.6 mph /  9 km/h 57 % 0.0 in /  0 mm
12:04 6.0 °F /  -14.4 °C -1.9 °F /  -18.8 °C 1021.9 in /  34601.5 hPa NNE 9.3 mph /  15 km/h 9.3 mph /  15 km/h 57 % 0.0 in /  0 mm
12:09 6.0 °F /  -14.4 °C -1.9 °F /  -18.8 °C 1021.9 in /  34601.5 hPa NE 7.4 mph /  11.9 km/h 7.4 mph /  11.9 km/h 57 % 0.0 in /  0 mm
12:19 6.1 °F /  -14.4 °C -1.8 °F /  -18.8 °C 1021.9 in /  34601.5 hPa NNE 7.4 mph /  11.9 km/h 7.4 mph /  11.9 km/h 57 % 0.0 in /  0 mm
12:29 6.2 °F /  -14.3 °C -1.7 °F /  -18.7 °C 1021.9 in /  34601.5 hPa NNE 9.0 mph /  14.5 km/h 9.0 mph /  14.5 km/h 57 % 0.0 in /  0 mm
12:39 6.4 °F /  -14.2 °C -1.5 °F /  -18.6 °C 1021.9 in /  34601.5 hPa NE 5.6 mph /  9 km/h 5.6 mph /  9 km/h 57 % 0.0 in /  0 mm
12:44 6.5 °F /  -14.2 °C -1.4 °F /  -18.6 °C 1021.9 in /  34601.5 hPa ENE 7.4 mph /  11.9 km/h 7.4 mph /  11.9 km/h 57 % 0.0 in /  0 mm
12:49 6.5 °F /  -14.2 °C -1.4 °F /  -18.6 °C 1021.9 in /  34601.5 hPa NNE 7.4 mph /  11.9 km/h 7.4 mph /  11.9 km/h 57 % 0.0 in /  0 mm
12:54 6.5 °F /  -14.2 °C -1.4 °F /  -18.6 °C 1021.9 in /  34601.5 hPa WNW 3.7 mph /  6 km/h 3.9 mph /  6.3 km/h 57 % 0.0 in /  0 mm
12:59 6.6 °F /  -14.1 °C -1.3 °F /  -18.5 °C 1021.9 in /  34601.5 hPa NE 3.7 mph /  6 km/h 3.7 mph /  6 km/h 57 % 0.0 in /  0 mm
13:04 6.6 °F /  -14.1 °C -1.3 °F /  -18.5 °C 1021.9 in /  34601.5 hPa ENE 7.4 mph /  11.9 km/h 7.4 mph /  11.9 km/h 57 % 0.0 in /  0 mm
13:14 6.8 °F /  -14 °C -1.1 °F /  -18.4 °C 1021.9 in /  34601.5 hPa NNE 7.4 mph /  11.9 km/h 7.4 mph /  11.9 km/h 57 % 0.0 in /  0 mm
13:24 7.0 °F /  -13.9 °C -0.9 °F /  -18.3 °C 1021.9 in /  34601.5 hPa NW 6.1 mph /  9.8 km/h 6.1 mph /  9.8 km/h 57 % 0.0 in /  0 mm
13:29 7.0 °F /  -13.9 °C -0.9 °F /  -18.3 °C 1020.9 in /  34567.7 hPa NNE 7.4 mph /  11.9 km/h 7.4 mph /  11.9 km/h 57 % 0.0 in /  0 mm
13:34 7.0 °F /  -13.9 °C -1.2 °F /  -18.4 °C 1020.9 in /  34567.7 hPa ENE 7.4 mph /  11.9 km/h 7.4 mph /  11.9 km/h 56 % 0.0 in /  0 mm
13:39 7.0 °F /  -13.9 °C -1.2 °F /  -18.4 °C 1020.9 in /  34567.7 hPa NNE 5.6 mph /  9 km/h 5.6 mph /  9 km/h 56 % 0.0 in /  0 mm
13:49 7.2 °F /  -13.8 °C -1.0 °F /  -18.3 °C 1020.9 in /  34567.7 hPa NE 11.1 mph /  17.9 km/h 11.1 mph /  17.9 km/h 56 % 0.0 in /  0 mm
13:59 7.3 °F /  -13.7 °C -0.9 °F /  -18.3 °C 1020.9 in /  34567.7 hPa ESE 4.2 mph /  6.8 km/h 5.0 mph /  8 km/h 56 % 0.0 in /  0 mm
14:04 7.4 °F /  -13.7 °C -0.8 °F /  -18.2 °C 1020.9 in /  34567.7 hPa NW 5.6 mph /  9 km/h 5.6 mph /  9 km/h 56 % 0.0 in /  0 mm
14:09 7.5 °F /  -13.6 °C -0.7 °F /  -18.2 °C 1020.9 in /  34567.7 hPa NW 7.4 mph /  11.9 km/h 7.4 mph /  11.9 km/h 56 % 0.0 in /  0 mm
14:14 7.6 °F /  -13.6 °C -0.6 °F /  -18.1 °C 1019.9 in /  34533.8 hPa NNW 9.3 mph /  15 km/h 9.3 mph /  15 km/h 56 % 0.0 in /  0 mm
14:24 7.6 °F /  -13.6 °C -0.6 °F /  -18.1 °C 1019.9 in /  34533.8 hPa ENE 9.3 mph /  15 km/h 9.3 mph /  15 km/h 56 % 0.0 in /  0 mm
14:34 7.6 °F /  -13.6 °C -0.6 °F /  -18.1 °C 1020.9 in /  34567.7 hPa NNW 9.3 mph /  15 km/h 9.3 mph /  15 km/h 56 % 0.0 in /  0 mm
14:39 7.7 °F /  -13.5 °C -0.6 °F /  -18.1 °C 1020.9 in /  34567.7 hPa ENE 9.3 mph /  15 km/h 9.3 mph /  15 km/h 56 % 0.0 in /  0 mm
14:44 7.9 °F /  -13.4 °C -0.3 °F /  -17.9 °C 1020.9 in /  34567.7 hPa ENE 5.6 mph /  9 km/h 5.6 mph /  9 km/h 56 % 0.0 in /  0 mm
15:09 8.4 °F /  -13.1 °C 0.1 °F /  -17.7 °C 1019.9 in /  34533.8 hPa NE 7.9 mph /  12.7 km/h 7.9 mph /  12.7 km/h 56 % 0.0 in /  0 mm
15:14 8.4 °F /  -13.1 °C 0.1 °F /  -17.7 °C 1020.9 in /  34567.7 hPa North 2.6 mph /  4.2 km/h 2.6 mph /  4.2 km/h 56 % 0.0 in /  0 mm
15:24 8.5 °F /  -13.1 °C 0.2 °F /  -17.7 °C 1020.9 in /  34567.7 hPa NE 13.0 mph /  20.9 km/h 13.0 mph /  20.9 km/h 56 % 0.0 in /  0 mm
15:29 8.6 °F /  -13 °C 0.3 °F /  -17.6 °C 1019.9 in /  34533.8 hPa NNE 9.3 mph /  15 km/h 9.3 mph /  15 km/h 56 % 0.0 in /  0 mm
15:34 8.7 °F /  -12.9 °C 0.4 °F /  -17.6 °C 1019.9 in /  34533.8 hPa NNE 7.4 mph /  11.9 km/h 7.4 mph /  11.9 km/h 56 % 0.0 in /  0 mm
15:44 8.7 °F /  -12.9 °C 0.4 °F /  -17.6 °C 1020.9 in /  34567.7 hPa NNE 7.4 mph /  11.9 km/h 7.4 mph /  11.9 km/h 56 % 0.0 in /  0 mm
15:49 8.7 °F /  -12.9 °C 0.4 °F /  -17.6 °C 1020.9 in /  34567.7 hPa ENE 11.1 mph /  17.9 km/h 11.1 mph /  17.9 km/h 56 % 0.0 in /  0 mm
15:54 8.6 °F /  -13 °C 0.1 °F /  -17.7 °C 1020.9 in /  34567.7 hPa North 5.0 mph /  8 km/h 5.0 mph /  8 km/h 55 % 0.0 in /  0 mm
16:04 8.6 °F /  -13 °C 0.3 °F /  -17.6 °C 1020.9 in /  34567.7 hPa NNW 5.6 mph /  9 km/h 5.6 mph /  9 km/h 56 % 0.0 in /  0 mm
16:09 8.5 °F /  -13.1 °C 0.2 °F /  -17.7 °C 1020.9 in /  34567.7 hPa WNW 3.7 mph /  6 km/h 3.7 mph /  6 km/h 56 % 0.0 in /  0 mm
16:14 8.5 °F /  -13.1 °C 0.2 °F /  -17.7 °C 1020.9 in /  34567.7 hPa North 3.7 mph /  6 km/h 3.7 mph /  6 km/h 56 % 0.0 in /  0 mm
16:24 8.5 °F /  -13.1 °C 0.2 °F /  -17.7 °C 1020.9 in /  34567.7 hPa NNW 3.7 mph /  6 km/h 3.7 mph /  6 km/h 56 % 0.0 in /  0 mm
16:29 8.6 °F /  -13 °C 0.3 °F /  -17.6 °C 1020.9 in /  34567.7 hPa NNE 3.7 mph /  6 km/h 3.7 mph /  6 km/h 56 % 0.0 in /  0 mm
16:34 8.5 °F /  -13.1 °C 0.2 °F /  -17.7 °C 1020.9 in /  34567.7 hPa West 3.7 mph /  6 km/h 3.7 mph /  6 km/h 56 % 0.0 in /  0 mm
16:39 8.5 °F /  -13.1 °C 0.2 °F /  -17.7 °C 1020.9 in /  34567.7 hPa NNE 7.4 mph /  11.9 km/h 7.4 mph /  11.9 km/h 56 % 0.0 in /  0 mm
16:44 8.4 °F /  -13.1 °C 0.1 °F /  -17.7 °C 1020.9 in /  34567.7 hPa ENE 2.3 mph /  3.7 km/h 2.3 mph /  3.7 km/h 56 % 0.0 in /  0 mm
16:49 8.3 °F /  -13.2 °C 0.0 °F /  -17.8 °C 1020.9 in /  34567.7 hPa NNE 5.6 mph /  9 km/h 5.6 mph /  9 km/h 56 % 0.0 in /  0 mm
16:59 8.1 °F /  -13.3 °C -0.2 °F /  -17.9 °C 1020.9 in /  34567.7 hPa NNE 3.9 mph /  6.3 km/h 3.9 mph /  6.3 km/h 56 % 0.0 in /  0 mm
17:04 8.0 °F /  -13.3 °C -0.3 °F /  -17.9 °C 1020.9 in /  34567.7 hPa NNW 3.7 mph /  6 km/h 3.7 mph /  6 km/h 56 % 0.0 in /  0 mm
17:09 8.0 °F /  -13.3 °C -0.3 °F /  -17.9 °C 1020.9 in /  34567.7 hPa WNW 1.9 mph /  3.1 km/h   56 % 0.0 in /  0 mm
17:34 7.4 °F /  -13.7 °C -0.6 °F /  -18.1 °C 1020.9 in /  34567.7 hPa NE 1.9 mph /  3.1 km/h 1.9 mph /  3.1 km/h 57 % 0.0 in /  0 mm
17:39 7.4 °F /  -13.7 °C -0.6 °F /  -18.1 °C 1020.9 in /  34567.7 hPa NNE 1.9 mph /  3.1 km/h 1.9 mph /  3.1 km/h 57 % 0.0 in /  0 mm
17:49 7.2 °F /  -13.8 °C -0.5 °F /  -18.1 °C 1021.9 in /  34601.5 hPa NNW 3.7 mph /  6 km/h 3.7 mph /  6 km/h 58 % 0.0 in /  0 mm
17:54 7.2 °F /  -13.8 °C -0.5 °F /  -18.1 °C 1021.9 in /  34601.5 hPa Calm     58 % 0.0 in /  0 mm
17:59 7.0 °F /  -13.9 °C -0.7 °F /  -18.2 °C 1021.9 in /  34601.5 hPa SW 3.2 mph /  5.1 km/h 3.2 mph /  5.1 km/h 58 % 0.0 in /  0 mm
18:04 6.9 °F /  -13.9 °C -0.8 °F /  -18.2 °C 1021.9 in /  34601.5 hPa SSW 3.7 mph /  6 km/h 3.7 mph /  6 km/h 58 % 0.0 in /  0 mm
18:14 7.1 °F /  -13.8 °C -0.4 °F /  -18 °C 1020.9 in /  34567.7 hPa WSW 4.7 mph /  7.6 km/h 4.7 mph /  7.6 km/h 59 % 0.0 in /  0 mm
18:19 6.8 °F /  -14 °C -0.7 °F /  -18.2 °C 1020.9 in /  34567.7 hPa Calm     59 % 0.0 in /  0 mm
18:24 6.9 °F /  -13.9 °C -0.6 °F /  -18.1 °C 1020.9 in /  34567.7 hPa SW 1.9 mph /  3.1 km/h 1.9 mph /  3.1 km/h 59 % 0.0 in /  0 mm
18:29 6.9 °F /  -13.9 °C -0.6 °F /  -18.1 °C 1020.9 in /  34567.7 hPa WNW 2.3 mph /  3.7 km/h   59 % 0.0 in /  0 mm
18:34 7.0 °F /  -13.9 °C -0.5 °F /  -18.1 °C 1020.9 in /  34567.7 hPa WNW 3.2 mph /  5.1 km/h   59 % 0.0 in /  0 mm
18:44 7.0 °F /  -13.9 °C -0.2 °F /  -17.9 °C 1020.9 in /  34567.7 hPa WNW 1.9 mph /  3.1 km/h   60 % 0.0 in /  0 mm
18:49 7.0 °F /  -13.9 °C -0.2 °F /  -17.9 °C 1020.9 in /  34567.7 hPa West 1.9 mph /  3.1 km/h 1.9 mph /  3.1 km/h 60 % 0.0 in /  0 mm
18:54 7.0 °F /  -13.9 °C -0.2 °F /  -17.9 °C 1020.9 in /  34567.7 hPa NNE 1.9 mph /  3.1 km/h   60 % 0.0 in /  0 mm
18:59 7.0 °F /  -13.9 °C -0.2 °F /  -17.9 °C 1021.9 in /  34601.5 hPa NE 2.3 mph /  3.7 km/h 2.3 mph /  3.7 km/h 60 % 0.0 in /  0 mm
19:04 7.0 °F /  -13.9 °C -0.2 °F /  -17.9 °C 1021.9 in /  34601.5 hPa WNW 3.7 mph /  6 km/h 3.7 mph /  6 km/h 60 % 0.0 in /  0 mm
19:05 7.1 °F /  -13.8 °C -0.2 °F /  -17.9 °C 1021.9 in /  34601.5 hPa NNW 1.6 mph /  2.6 km/h 3.2 mph /  5.1 km/h 60 % 0.0 in /  0 mm
19:15 6.9 °F /  -13.9 °C -0.3 °F /  -17.9 °C 1020.9 in /  34567.7 hPa WSW 1.9 mph /  3.1 km/h 1.9 mph /  3.1 km/h 60 % 0.0 in /  0 mm
19:20 6.4 °F /  -14.2 °C -0.8 °F /  -18.2 °C 1020.9 in /  34567.7 hPa WSW 2.6 mph /  4.2 km/h 2.6 mph /  4.2 km/h 60 % 0.0 in /  0 mm
19:25 6.5 °F /  -14.2 °C -0.4 °F /  -18 °C 1020.9 in /  34567.7 hPa Calm   3.2 mph /  5.1 km/h 61 % 0.0 in /  0 mm
19:30 6.8 °F /  -14 °C -0.2 °F /  -17.9 °C 1020.9 in /  34567.7 hPa WNW 2.3 mph /  3.7 km/h 2.3 mph /  3.7 km/h 61 % 0.0 in /  0 mm
19:35 6.7 °F /  -14.1 °C -0.3 °F /  -17.9 °C 1020.9 in /  34567.7 hPa Calm   1.6 mph /  2.6 km/h 61 % 0.0 in /  0 mm
19:40 6.4 °F /  -14.2 °C -0.6 °F /  -18.1 °C 1020.9 in /  34567.7 hPa Calm     61 % 0.0 in /  0 mm
19:45 6.2 °F /  -14.3 °C -0.8 °F /  -18.2 °C 1020.9 in /  34567.7 hPa WSW 3.7 mph /  6 km/h 3.7 mph /  6 km/h 61 % 0.0 in /  0 mm
19:50 6.2 °F /  -14.3 °C -0.8 °F /  -18.2 °C 1020.9 in /  34567.7 hPa WSW 3.7 mph /  6 km/h 3.7 mph /  6 km/h 61 % 0.0 in /  0 mm
19:55 6.1 °F /  -14.4 °C -0.9 °F /  -18.3 °C 1020.9 in /  34567.7 hPa WSW 3.7 mph /  6 km/h 3.7 mph /  6 km/h 61 % 0.0 in /  0 mm
20:00 6.1 °F /  -14.4 °C -0.9 °F /  -18.3 °C 1020.9 in /  34567.7 hPa Calm     61 % 0.0 in /  0 mm
20:05 6.0 °F /  -14.4 °C -0.7 °F /  -18.2 °C 1020.9 in /  34567.7 hPa NNW 1.9 mph /  3.1 km/h 1.9 mph /  3.1 km/h 62 % 0.0 in /  0 mm
20:10 6.0 °F /  -14.4 °C -0.7 °F /  -18.2 °C 1020.9 in /  34567.7 hPa North 1.9 mph /  3.1 km/h 1.9 mph /  3.1 km/h 62 % 0.0 in /  0 mm
20:15 6.0 °F /  -14.4 °C -0.7 °F /  -18.2 °C 1020.9 in /  34567.7 hPa NW 1.9 mph /  3.1 km/h   62 % 0.0 in /  0 mm
20:20 6.1 °F /  -14.4 °C -0.7 °F /  -18.2 °C 1020.9 in /  34567.7 hPa NW 1.9 mph /  3.1 km/h   62 % 0.0 in /  0 mm
20:25 6.1 °F /  -14.4 °C -0.4 °F /  -18 °C 1020.9 in /  34567.7 hPa NNE 3.7 mph /  6 km/h 3.7 mph /  6 km/h 63 % 0.0 in /  0 mm
20:30 6.0 °F /  -14.4 °C -0.7 °F /  -18.2 °C 1020.9 in /  34567.7 hPa NNE 4.7 mph /  7.6 km/h 4.7 mph /  7.6 km/h 62 % 0.0 in /  0 mm
20:40 5.5 °F /  -14.7 °C -1.0 °F /  -18.3 °C 1020.9 in /  34567.7 hPa NNE 4.2 mph /  6.8 km/h 4.2 mph /  6.8 km/h 63 % 0.0 in /  0 mm
20:50 5.6 °F /  -14.7 °C -0.9 °F /  -18.3 °C 1020.9 in /  34567.7 hPa Calm     63 % 0.0 in /  0 mm
20:55 5.6 °F /  -14.7 °C -0.7 °F /  -18.2 °C 1020.9 in /  34567.7 hPa Calm     64 % 0.0 in /  0 mm
21:00 5.6 °F /  -14.7 °C -0.7 °F /  -18.2 °C 1020.9 in /  34567.7 hPa North 1.9 mph /  3.1 km/h 1.9 mph /  3.1 km/h 64 % 0.0 in /  0 mm
21:05 5.5 °F /  -14.7 °C -0.8 °F /  -18.2 °C 1020.9 in /  34567.7 hPa Calm     64 % 0.0 in /  0 mm
21:20 5.6 °F /  -14.7 °C -0.7 °F /  -18.2 °C 1020.9 in /  34567.7 hPa NNW 1.4 mph /  2.3 km/h   64 % 0.0 in /  0 mm
21:25 5.6 °F /  -14.7 °C -0.7 °F /  -18.2 °C 1020.9 in /  34567.7 hPa Calm     64 % 0.0 in /  0 mm
21:40 5.2 °F /  -14.9 °C -1.1 °F /  -18.4 °C 1019.9 in /  34533.8 hPa NNE 3.7 mph /  6 km/h 3.7 mph /  6 km/h 64 % 0.0 in /  0 mm
21:45 5.2 °F /  -14.9 °C -0.8 °F /  -18.2 °C 1020.9 in /  34567.7 hPa WSW 1.9 mph /  3.1 km/h 1.9 mph /  3.1 km/h 65 % 0.0 in /  0 mm
21:50 5.2 °F /  -14.9 °C -0.8 °F /  -18.2 °C 1020.9 in /  34567.7 hPa WSW 2.6 mph /  4.2 km/h   65 % 0.0 in /  0 mm
21:55 5.3 °F /  -14.8 °C -0.8 °F /  -18.2 °C 1020.9 in /  34567.7 hPa WSW 2.3 mph /  3.7 km/h 2.3 mph /  3.7 km/h 65 % 0.0 in /  0 mm
22:05 5.3 °F /  -14.8 °C -0.8 °F /  -18.2 °C 1019.9 in /  34533.8 hPa WSW 1.9 mph /  3.1 km/h 1.9 mph /  3.1 km/h 65 % 0.0 in /  0 mm
22:15 5.3 °F /  -14.8 °C -0.8 °F /  -18.2 °C 1019.9 in /  34533.8 hPa SW 1.9 mph /  3.1 km/h 1.9 mph /  3.1 km/h 65 % 0.0 in /  0 mm
22:20 5.3 °F /  -14.8 °C -0.6 °F /  -18.1 °C 1019.9 in /  34533.8 hPa SW 2.6 mph /  4.2 km/h   66 % 0.0 in /  0 mm
22:25 5.2 °F /  -14.9 °C -0.8 °F /  -18.2 °C 1019.9 in /  34533.8 hPa Calm     65 % 0.0 in /  0 mm
22:30 5.2 °F /  -14.9 °C -0.7 °F /  -18.2 °C 1019.9 in /  34533.8 hPa Calm     66 % 0.0 in /  0 mm
22:35 5.1 °F /  -14.9 °C -0.9 °F /  -18.3 °C 1019.9 in /  34533.8 hPa SW 3.9 mph /  6.3 km/h 3.9 mph /  6.3 km/h 65 % 0.0 in /  0 mm
22:40 4.9 °F /  -15.1 °C -0.9 °F /  -18.3 °C 1019.9 in /  34533.8 hPa Calm     66 % 0.0 in /  0 mm
22:45 4.8 °F /  -15.1 °C -1.0 °F /  -18.3 °C 1019.9 in /  34533.8 hPa WSW 1.9 mph /  3.1 km/h 1.9 mph /  3.1 km/h 66 % 0.0 in /  0 mm
22:48 4.8 °F /  -15.1 °C -1.0 °F /  -18.3 °C 1019.9 in /  34533.8 hPa West 1.9 mph /  3.1 km/h   66 % 0.0 in /  0 mm
22:53 4.8 °F /  -15.1 °C -1.0 °F /  -18.3 °C 1019.9 in /  34533.8 hPa Calm     66 % 0.0 in /  0 mm
22:58 4.7 °F /  -15.2 °C -1.1 °F /  -18.4 °C 1019.9 in /  34533.8 hPa NW 2.6 mph /  4.2 km/h 2.6 mph /  4.2 km/h 66 % 0.0 in /  0 mm
23:13 4.7 °F /  -15.2 °C -0.9 °F /  -18.3 °C 1019.9 in /  34533.8 hPa Calm     67 % 0.0 in /  0 mm
23:18 4.6 °F /  -15.2 °C -1.0 °F /  -18.3 °C 1019.9 in /  34533.8 hPa WNW 1.9 mph /  3.1 km/h   67 % 0.0 in /  0 mm
23:23 4.5 °F /  -15.3 °C -1.3 °F /  -18.5 °C 1019.9 in /  34533.8 hPa WSW 1.9 mph /  3.1 km/h 1.9 mph /  3.1 km/h 66 % 0.0 in /  0 mm
23:38 4.2 °F /  -15.4 °C -1.4 °F /  -18.6 °C 1018.8 in /  34496.6 hPa WSW 3.7 mph /  6 km/h 3.7 mph /  6 km/h 67 % 0.0 in /  0 mm
23:43 4.3 °F /  -15.4 °C -1.1 °F /  -18.4 °C 1019.9 in /  34533.8 hPa NNE 3.7 mph /  6 km/h 3.7 mph /  6 km/h 68 % 0.0 in /  0 mm
23:53 4.2 °F /  -15.4 °C -1.0 °F /  -18.3 °C 1019.9 in /  34533.8 hPa SSE 3.7 mph /  6 km/h   69 % 0.0 in /  0 mm
23:58 4.2 °F /  -15.4 °C -1.0 °F /  -18.3 °C 1019.9 in /  34533.8 hPa NE 1.9 mph /  3.1 km/h 1.9 mph /  3.1 km/h 69 % 0.0 in /  0 mm
Meteo Sesrovires
Elogis d' Weather Underground - 1.5 mb

Guio original per  Jim McMurry - jmcmurry@mwt.net Adaptat per a la plantilla per  Wim van der Kuil - Leuven-Template.eu

Trobareu la nostra informacio del temps tambe a:

Weather Underground

AWEKAS